sensor_id;sensor_type;location;lat;lon;timestamp;P1;durP1;ratioP1;P2;durP2;ratioP2
52738;SDS011;52466;40.122;18.318;2022-09-09T00:02:37;109.18;;;61.33;;
52738;SDS011;52466;40.122;18.318;2022-09-09T00:06:08;103.47;;;61.05;;
52738;SDS011;52466;40.122;18.318;2022-09-09T00:09:26;114.93;;;61.67;;
52738;SDS011;52466;40.122;18.318;2022-09-09T00:19:32;108.80;;;61.97;;
52738;SDS011;52466;40.122;18.318;2022-09-09T00:22:49;105.85;;;61.40;;
52738;SDS011;52466;40.122;18.318;2022-09-09T00:29:43;102.53;;;60.28;;
52738;SDS011;52466;40.122;18.318;2022-09-09T00:33:01;107.17;;;61.70;;
52738;SDS011;52466;40.122;18.318;2022-09-09T00:36:20;104.90;;;60.72;;
52738;SDS011;52466;40.122;18.318;2022-09-09T00:39:41;111.75;;;61.35;;
52738;SDS011;52466;40.122;18.318;2022-09-09T00:54:09;111.82;;;60.40;;
52738;SDS011;52466;40.122;18.318;2022-09-09T00:57:13;107.93;;;60.25;;
52738;SDS011;52466;40.122;18.318;2022-09-09T01:00:46;101.03;;;60.55;;
52738;SDS011;52466;40.122;18.318;2022-09-09T01:03:58;102.20;;;60.15;;
52738;SDS011;52466;40.122;18.318;2022-09-09T01:07:19;103.72;;;61.70;;
52738;SDS011;52466;40.122;18.318;2022-09-09T01:10:38;104.68;;;61.05;;
52738;SDS011;52466;40.122;18.318;2022-09-09T01:17:29;102.03;;;61.17;;
52738;SDS011;52466;40.122;18.318;2022-09-09T01:20:59;100.10;;;60.90;;
52738;SDS011;52466;40.122;18.318;2022-09-09T01:28:15;103.03;;;61.10;;
52738;SDS011;52466;40.122;18.318;2022-09-09T01:34:49;102.10;;;60.40;;
52738;SDS011;52466;40.122;18.318;2022-09-09T01:37:58;101.53;;;60.63;;
52738;SDS011;52466;40.122;18.318;2022-09-09T01:41:07;102.20;;;60.75;;
52738;SDS011;52466;40.122;18.318;2022-09-09T01:44:25;104.93;;;61.15;;
52738;SDS011;52466;40.122;18.318;2022-09-09T01:47:36;100.05;;;60.38;;
52738;SDS011;52466;40.122;18.318;2022-09-09T01:51:00;103.78;;;60.45;;
52738;SDS011;52466;40.122;18.318;2022-09-09T01:54:08;98.65;;;60.75;;
52738;SDS011;52466;40.122;18.318;2022-09-09T02:00:24;105.05;;;60.92;;
52738;SDS011;52466;40.122;18.318;2022-09-09T02:03:34;106.00;;;61.00;;
52738;SDS011;52466;40.122;18.318;2022-09-09T02:06:53;102.53;;;60.78;;
52738;SDS011;52466;40.122;18.318;2022-09-09T02:10:10;102.25;;;61.22;;
52738;SDS011;52466;40.122;18.318;2022-09-09T02:13:43;104.85;;;61.22;;
52738;SDS011;52466;40.122;18.318;2022-09-09T02:16:57;104.05;;;61.42;;
52738;SDS011;52466;40.122;18.318;2022-09-09T02:20:27;106.70;;;61.15;;
52738;SDS011;52466;40.122;18.318;2022-09-09T02:23:39;105.30;;;61.90;;
52738;SDS011;52466;40.122;18.318;2022-09-09T02:26:50;106.20;;;61.78;;
52738;SDS011;52466;40.122;18.318;2022-09-09T02:30:02;114.13;;;61.88;;
52738;SDS011;52466;40.122;18.318;2022-09-09T02:33:16;108.70;;;63.67;;
52738;SDS011;52466;40.122;18.318;2022-09-09T02:36:31;110.07;;;62.28;;
52738;SDS011;52466;40.122;18.318;2022-09-09T02:39:40;112.45;;;62.00;;
52738;SDS011;52466;40.122;18.318;2022-09-09T02:42:52;108.68;;;61.42;;
52738;SDS011;52466;40.122;18.318;2022-09-09T02:49:43;109.57;;;60.95;;
52738;SDS011;52466;40.122;18.318;2022-09-09T02:53:18;108.10;;;62.85;;
52738;SDS011;52466;40.122;18.318;2022-09-09T02:56:42;103.65;;;61.00;;
52738;SDS011;52466;40.122;18.318;2022-09-09T02:59:57;103.05;;;61.05;;
52738;SDS011;52466;40.122;18.318;2022-09-09T03:03:08;107.25;;;60.65;;
52738;SDS011;52466;40.122;18.318;2022-09-09T03:06:16;105.65;;;61.22;;
52738;SDS011;52466;40.122;18.318;2022-09-09T03:09:32;103.93;;;60.67;;
52738;SDS011;52466;40.122;18.318;2022-09-09T03:12:40;108.07;;;61.65;;
52738;SDS011;52466;40.122;18.318;2022-09-09T03:15:49;105.90;;;60.78;;
52738;SDS011;52466;40.122;18.318;2022-09-09T03:18:57;101.18;;;60.90;;
52738;SDS011;52466;40.122;18.318;2022-09-09T03:22:05;107.78;;;61.65;;
52738;SDS011;52466;40.122;18.318;2022-09-09T03:25:16;101.38;;;60.92;;
52738;SDS011;52466;40.122;18.318;2022-09-09T03:28:26;110.78;;;61.08;;
52738;SDS011;52466;40.122;18.318;2022-09-09T03:31:38;115.65;;;62.65;;
52738;SDS011;52466;40.122;18.318;2022-09-09T03:34:47;99.70;;;60.95;;
52738;SDS011;52466;40.122;18.318;2022-09-09T03:37:56;103.18;;;60.28;;
52738;SDS011;52466;40.122;18.318;2022-09-09T03:41:06;104.28;;;60.55;;
52738;SDS011;52466;40.122;18.318;2022-09-09T03:44:14;102.32;;;60.78;;
52738;SDS011;52466;40.122;18.318;2022-09-09T03:47:22;105.65;;;61.13;;
52738;SDS011;52466;40.122;18.318;2022-09-09T03:50:37;100.78;;;60.00;;
52738;SDS011;52466;40.122;18.318;2022-09-09T03:53:44;103.07;;;61.03;;
52738;SDS011;52466;40.122;18.318;2022-09-09T03:56:52;100.85;;;60.00;;
52738;SDS011;52466;40.122;18.318;2022-09-09T04:00:02;104.00;;;60.55;;
52738;SDS011;52466;40.122;18.318;2022-09-09T04:03:28;103.43;;;60.97;;
52738;SDS011;52466;40.122;18.318;2022-09-09T04:06:36;108.72;;;60.55;;
52738;SDS011;52466;40.122;18.318;2022-09-09T04:09:50;103.85;;;60.10;;
52738;SDS011;52466;40.122;18.318;2022-09-09T04:12:58;101.85;;;60.38;;
52738;SDS011;52466;40.122;18.318;2022-09-09T04:16:07;99.00;;;59.83;;
52738;SDS011;52466;40.122;18.318;2022-09-09T04:19:18;101.88;;;60.10;;
52738;SDS011;52466;40.122;18.318;2022-09-09T04:22:25;105.70;;;60.63;;
52738;SDS011;52466;40.122;18.318;2022-09-09T04:25:34;104.05;;;60.75;;
52738;SDS011;52466;40.122;18.318;2022-09-09T04:28:42;103.18;;;60.35;;
52738;SDS011;52466;40.122;18.318;2022-09-09T04:31:53;103.20;;;61.00;;
52738;SDS011;52466;40.122;18.318;2022-09-09T04:35:00;104.03;;;60.17;;
52738;SDS011;52466;40.122;18.318;2022-09-09T04:38:22;102.25;;;60.35;;
52738;SDS011;52466;40.122;18.318;2022-09-09T04:41:30;102.93;;;60.30;;
52738;SDS011;52466;40.122;18.318;2022-09-09T04:44:38;103.85;;;60.83;;
52738;SDS011;52466;40.122;18.318;2022-09-09T04:47:48;111.50;;;64.25;;
52738;SDS011;52466;40.122;18.318;2022-09-09T04:50:57;123.80;;;72.78;;
52738;SDS011;52466;40.122;18.318;2022-09-09T04:54:09;130.77;;;76.57;;
52738;SDS011;52466;40.122;18.318;2022-09-09T04:57:18;122.75;;;70.15;;
52738;SDS011;52466;40.122;18.318;2022-09-09T05:00:26;106.20;;;63.60;;
52738;SDS011;52466;40.122;18.318;2022-09-09T05:03:34;109.25;;;64.63;;
52738;SDS011;52466;40.122;18.318;2022-09-09T05:06:45;106.22;;;61.42;;
52738;SDS011;52466;40.122;18.318;2022-09-09T05:09:52;106.95;;;61.67;;
52738;SDS011;52466;40.122;18.318;2022-09-09T05:13:00;106.85;;;61.42;;
52738;SDS011;52466;40.122;18.318;2022-09-09T05:16:08;105.68;;;61.25;;
52738;SDS011;52466;40.122;18.318;2022-09-09T05:19:19;102.50;;;59.90;;
52738;SDS011;52466;40.122;18.318;2022-09-09T05:22:28;102.40;;;59.78;;
52738;SDS011;52466;40.122;18.318;2022-09-09T05:25:41;98.63;;;59.63;;
52738;SDS011;52466;40.122;18.318;2022-09-09T05:29:05;104.70;;;61.13;;
52738;SDS011;52466;40.122;18.318;2022-09-09T05:32:13;105.72;;;61.20;;
52738;SDS011;52466;40.122;18.318;2022-09-09T05:35:24;106.75;;;60.55;;
52738;SDS011;52466;40.122;18.318;2022-09-09T05:38:31;104.78;;;60.00;;
52738;SDS011;52466;40.122;18.318;2022-09-09T05:41:39;108.55;;;60.97;;
52738;SDS011;52466;40.122;18.318;2022-09-09T05:44:47;105.40;;;60.33;;
52738;SDS011;52466;40.122;18.318;2022-09-09T05:47:56;106.03;;;60.35;;
52738;SDS011;52466;40.122;18.318;2022-09-09T05:51:05;105.28;;;59.92;;
52738;SDS011;52466;40.122;18.318;2022-09-09T05:54:15;102.43;;;60.05;;
52738;SDS011;52466;40.122;18.318;2022-09-09T05:57:25;106.13;;;59.92;;
52738;SDS011;52466;40.122;18.318;2022-09-09T06:00:33;104.13;;;60.25;;
52738;SDS011;52466;40.122;18.318;2022-09-09T06:03:42;103.13;;;59.90;;
52738;SDS011;52466;40.122;18.318;2022-09-09T06:06:50;105.00;;;60.65;;
52738;SDS011;52466;40.122;18.318;2022-09-09T06:09:58;106.07;;;60.47;;
52738;SDS011;52466;40.122;18.318;2022-09-09T06:13:06;107.15;;;60.80;;
52738;SDS011;52466;40.122;18.318;2022-09-09T06:16:16;104.47;;;60.33;;
52738;SDS011;52466;40.122;18.318;2022-09-09T06:19:25;103.93;;;59.92;;
52738;SDS011;52466;40.122;18.318;2022-09-09T06:22:35;103.28;;;60.17;;
52738;SDS011;52466;40.122;18.318;2022-09-09T06:26:05;108.20;;;59.80;;
52738;SDS011;52466;40.122;18.318;2022-09-09T06:29:22;107.68;;;59.78;;
52738;SDS011;52466;40.122;18.318;2022-09-09T06:32:31;100.25;;;59.53;;
52738;SDS011;52466;40.122;18.318;2022-09-09T06:35:50;106.57;;;59.92;;
52738;SDS011;52466;40.122;18.318;2022-09-09T06:39:00;102.18;;;59.95;;
52738;SDS011;52466;40.122;18.318;2022-09-09T06:42:09;101.32;;;60.15;;
52738;SDS011;52466;40.122;18.318;2022-09-09T06:45:43;101.45;;;60.28;;
52738;SDS011;52466;40.122;18.318;2022-09-09T06:48:52;102.60;;;60.13;;
52738;SDS011;52466;40.122;18.318;2022-09-09T06:52:02;102.45;;;60.53;;
52738;SDS011;52466;40.122;18.318;2022-09-09T06:55:10;101.80;;;60.72;;
52738;SDS011;52466;40.122;18.318;2022-09-09T06:58:17;106.07;;;61.10;;
52738;SDS011;52466;40.122;18.318;2022-09-09T07:01:28;104.30;;;60.25;;
52738;SDS011;52466;40.122;18.318;2022-09-09T07:04:41;111.95;;;60.78;;
52738;SDS011;52466;40.122;18.318;2022-09-09T07:07:50;103.80;;;60.53;;
52738;SDS011;52466;40.122;18.318;2022-09-09T07:11:02;104.35;;;60.58;;
52738;SDS011;52466;40.122;18.318;2022-09-09T07:14:16;111.70;;;59.75;;
52738;SDS011;52466;40.122;18.318;2022-09-09T07:17:29;112.35;;;61.95;;
52738;SDS011;52466;40.122;18.318;2022-09-09T07:20:37;109.13;;;61.20;;
52738;SDS011;52466;40.122;18.318;2022-09-09T07:23:45;108.68;;;61.42;;
52738;SDS011;52466;40.122;18.318;2022-09-09T07:26:52;108.63;;;61.15;;
52738;SDS011;52466;40.122;18.318;2022-09-09T07:30:01;107.63;;;60.95;;
52738;SDS011;52466;40.122;18.318;2022-09-09T07:33:10;114.30;;;61.20;;
52738;SDS011;52466;40.122;18.318;2022-09-09T07:36:18;105.50;;;60.95;;
52738;SDS011;52466;40.122;18.318;2022-09-09T07:39:32;104.88;;;61.05;;
52738;SDS011;52466;40.122;18.318;2022-09-09T07:42:39;109.85;;;61.35;;
52738;SDS011;52466;40.122;18.318;2022-09-09T07:45:47;115.85;;;61.22;;
52738;SDS011;52466;40.122;18.318;2022-09-09T07:48:57;106.55;;;61.65;;
52738;SDS011;52466;40.122;18.318;2022-09-09T07:52:08;106.72;;;61.15;;
52738;SDS011;52466;40.122;18.318;2022-09-09T07:55:20;110.32;;;61.20;;
52738;SDS011;52466;40.122;18.318;2022-09-09T07:58:32;105.75;;;60.65;;
52738;SDS011;52466;40.122;18.318;2022-09-09T08:01:42;107.47;;;61.45;;
52738;SDS011;52466;40.122;18.318;2022-09-09T08:04:54;110.70;;;61.72;;
52738;SDS011;52466;40.122;18.318;2022-09-09T08:08:04;112.07;;;61.72;;
52738;SDS011;52466;40.122;18.318;2022-09-09T08:11:13;104.65;;;61.30;;
52738;SDS011;52466;40.122;18.318;2022-09-09T08:14:22;111.43;;;61.88;;
52738;SDS011;52466;40.122;18.318;2022-09-09T08:17:31;110.93;;;62.10;;
52738;SDS011;52466;40.122;18.318;2022-09-09T08:20:41;107.47;;;61.92;;
52738;SDS011;52466;40.122;18.318;2022-09-09T08:23:50;108.57;;;62.25;;
52738;SDS011;52466;40.122;18.318;2022-09-09T08:26:59;110.85;;;62.42;;
52738;SDS011;52466;40.122;18.318;2022-09-09T08:30:08;111.53;;;62.78;;
52738;SDS011;52466;40.122;18.318;2022-09-09T08:38:02;108.10;;;62.25;;
52738;SDS011;52466;40.122;18.318;2022-09-09T08:48:16;115.18;;;62.20;;
52738;SDS011;52466;40.122;18.318;2022-09-09T08:51:58;119.80;;;63.67;;
52738;SDS011;52466;40.122;18.318;2022-09-09T08:58:33;121.65;;;63.50;;
52738;SDS011;52466;40.122;18.318;2022-09-09T09:01:56;123.05;;;64.22;;
52738;SDS011;52466;40.122;18.318;2022-09-09T09:05:29;129.10;;;65.38;;
52738;SDS011;52466;40.122;18.318;2022-09-09T09:12:00;130.82;;;64.60;;
52738;SDS011;52466;40.122;18.318;2022-09-09T09:15:18;128.45;;;63.92;;
52738;SDS011;52466;40.122;18.318;2022-09-09T09:18:29;130.63;;;64.90;;
52738;SDS011;52466;40.122;18.318;2022-09-09T09:21:42;127.60;;;65.10;;
52738;SDS011;52466;40.122;18.318;2022-09-09T09:24:53;131.85;;;65.22;;
52738;SDS011;52466;40.122;18.318;2022-09-09T09:28:24;135.18;;;65.40;;
52738;SDS011;52466;40.122;18.318;2022-09-09T09:31:45;133.05;;;65.28;;
52738;SDS011;52466;40.122;18.318;2022-09-09T09:35:10;141.38;;;65.47;;
52738;SDS011;52466;40.122;18.318;2022-09-09T09:38:23;131.30;;;64.40;;
52738;SDS011;52466;40.122;18.318;2022-09-09T09:41:41;133.25;;;65.40;;
52738;SDS011;52466;40.122;18.318;2022-09-09T09:44:51;135.07;;;65.10;;
52738;SDS011;52466;40.122;18.318;2022-09-09T09:48:03;137.68;;;66.13;;
52738;SDS011;52466;40.122;18.318;2022-09-09T09:51:14;142.57;;;66.40;;
52738;SDS011;52466;40.122;18.318;2022-09-09T09:54:28;137.55;;;66.43;;
52738;SDS011;52466;40.122;18.318;2022-09-09T09:57:38;141.63;;;66.43;;
52738;SDS011;52466;40.122;18.318;2022-09-09T10:00:47;136.85;;;65.05;;
52738;SDS011;52466;40.122;18.318;2022-09-09T10:04:02;133.88;;;65.68;;
52738;SDS011;52466;40.122;18.318;2022-09-09T10:07:25;134.45;;;65.25;;
52738;SDS011;52466;40.122;18.318;2022-09-09T10:27:28;133.27;;;65.00;;
52738;SDS011;52466;40.122;18.318;2022-09-09T10:44:26;136.32;;;66.28;;
52738;SDS011;52466;40.122;18.318;2022-09-09T10:51:28;137.77;;;66.45;;
52738;SDS011;52466;40.122;18.318;2022-09-09T10:59:10;141.23;;;66.97;;
52738;SDS011;52466;40.122;18.318;2022-09-09T11:02:18;139.90;;;66.25;;
52738;SDS011;52466;40.122;18.318;2022-09-09T11:05:43;152.10;;;67.90;;
52738;SDS011;52466;40.122;18.318;2022-09-09T11:08:54;150.50;;;67.47;;
52738;SDS011;52466;40.122;18.318;2022-09-09T11:12:07;154.55;;;68.28;;
52738;SDS011;52466;40.122;18.318;2022-09-09T11:15:20;162.65;;;67.88;;
52738;SDS011;52466;40.122;18.318;2022-09-09T11:18:38;156.18;;;67.22;;
52738;SDS011;52466;40.122;18.318;2022-09-09T11:21:50;152.95;;;67.45;;
52738;SDS011;52466;40.122;18.318;2022-09-09T11:25:10;152.30;;;67.70;;
52738;SDS011;52466;40.122;18.318;2022-09-09T11:39:56;150.13;;;67.10;;
52738;SDS011;52466;40.122;18.318;2022-09-09T11:43:26;153.77;;;68.53;;
52738;SDS011;52466;40.122;18.318;2022-09-09T11:46:36;159.43;;;69.13;;
52738;SDS011;52466;40.122;18.318;2022-09-09T11:49:45;162.95;;;68.45;;
52738;SDS011;52466;40.122;18.318;2022-09-09T11:56:32;161.20;;;68.32;;
52738;SDS011;52466;40.122;18.318;2022-09-09T12:00:27;166.90;;;68.60;;
52738;SDS011;52466;40.122;18.318;2022-09-09T12:03:50;157.82;;;67.80;;
52738;SDS011;52466;40.122;18.318;2022-09-09T12:07:05;155.40;;;68.47;;
52738;SDS011;52466;40.122;18.318;2022-09-09T12:10:28;156.85;;;68.65;;
52738;SDS011;52466;40.122;18.318;2022-09-09T12:13:39;152.33;;;68.17;;
52738;SDS011;52466;40.122;18.318;2022-09-09T12:16:48;153.75;;;67.88;;
52738;SDS011;52466;40.122;18.318;2022-09-09T12:20:08;155.70;;;67.75;;
52738;SDS011;52466;40.122;18.318;2022-09-09T12:24:15;157.80;;;68.00;;
52738;SDS011;52466;40.122;18.318;2022-09-09T12:27:24;157.45;;;68.78;;
52738;SDS011;52466;40.122;18.318;2022-09-09T12:37:56;157.98;;;68.68;;
52738;SDS011;52466;40.122;18.318;2022-09-09T12:41:26;156.05;;;68.72;;
52738;SDS011;52466;40.122;18.318;2022-09-09T12:45:00;161.85;;;68.80;;
52738;SDS011;52466;40.122;18.318;2022-09-09T12:48:10;158.57;;;68.38;;
52738;SDS011;52466;40.122;18.318;2022-09-09T12:51:27;160.40;;;68.95;;
52738;SDS011;52466;40.122;18.318;2022-09-09T12:54:37;160.23;;;69.07;;
52738;SDS011;52466;40.122;18.318;2022-09-09T13:00:58;160.10;;;69.65;;
52738;SDS011;52466;40.122;18.318;2022-09-09T13:04:19;160.88;;;68.20;;
52738;SDS011;52466;40.122;18.318;2022-09-09T13:07:36;157.00;;;68.55;;
52738;SDS011;52466;40.122;18.318;2022-09-09T13:10:49;162.82;;;68.10;;
52738;SDS011;52466;40.122;18.318;2022-09-09T13:14:03;162.85;;;68.65;;
52738;SDS011;52466;40.122;18.318;2022-09-09T13:17:22;160.50;;;68.60;;
52738;SDS011;52466;40.122;18.318;2022-09-09T13:20:31;156.88;;;68.25;;
52738;SDS011;52466;40.122;18.318;2022-09-09T13:23:39;167.02;;;69.05;;
52738;SDS011;52466;40.122;18.318;2022-09-09T13:26:53;156.40;;;68.93;;
52738;SDS011;52466;40.122;18.318;2022-09-09T13:30:25;157.65;;;68.38;;
52738;SDS011;52466;40.122;18.318;2022-09-09T13:33:37;162.55;;;69.13;;
52738;SDS011;52466;40.122;18.318;2022-09-09T13:36:46;161.55;;;68.38;;
52738;SDS011;52466;40.122;18.318;2022-09-09T13:39:55;160.05;;;69.03;;
52738;SDS011;52466;40.122;18.318;2022-09-09T13:43:36;160.43;;;69.05;;
52738;SDS011;52466;40.122;18.318;2022-09-09T13:46:59;162.60;;;69.30;;
52738;SDS011;52466;40.122;18.318;2022-09-09T13:50:24;158.07;;;68.68;;
52738;SDS011;52466;40.122;18.318;2022-09-09T13:53:34;157.32;;;68.32;;
52738;SDS011;52466;40.122;18.318;2022-09-09T13:56:43;158.75;;;68.68;;
52738;SDS011;52466;40.122;18.318;2022-09-09T13:59:52;154.00;;;67.50;;
52738;SDS011;52466;40.122;18.318;2022-09-09T14:06:15;151.00;;;67.25;;
52738;SDS011;52466;40.122;18.318;2022-09-09T14:09:33;146.90;;;67.18;;
52738;SDS011;52466;40.122;18.318;2022-09-09T14:12:41;150.73;;;67.40;;
52738;SDS011;52466;40.122;18.318;2022-09-09T14:15:55;153.55;;;67.45;;
52738;SDS011;52466;40.122;18.318;2022-09-09T14:19:47;146.50;;;66.55;;
52738;SDS011;52466;40.122;18.318;2022-09-09T14:22:56;142.35;;;66.85;;
52738;SDS011;52466;40.122;18.318;2022-09-09T14:29:36;144.07;;;67.30;;
52738;SDS011;52466;40.122;18.318;2022-09-09T14:32:44;141.15;;;67.35;;
52738;SDS011;52466;40.122;18.318;2022-09-09T14:35:55;144.40;;;66.90;;
52738;SDS011;52466;40.122;18.318;2022-09-09T14:39:04;146.25;;;67.60;;
52738;SDS011;52466;40.122;18.318;2022-09-09T14:42:12;144.82;;;67.57;;
52738;SDS011;52466;40.122;18.318;2022-09-09T14:45:22;144.63;;;67.78;;
52738;SDS011;52466;40.122;18.318;2022-09-09T14:48:31;146.30;;;67.45;;
52738;SDS011;52466;40.122;18.318;2022-09-09T14:51:40;144.98;;;67.68;;
52738;SDS011;52466;40.122;18.318;2022-09-09T14:54:48;148.65;;;69.15;;
52738;SDS011;52466;40.122;18.318;2022-09-09T14:57:56;147.40;;;68.95;;
52738;SDS011;52466;40.122;18.318;2022-09-09T15:01:04;151.50;;;68.97;;
52738;SDS011;52466;40.122;18.318;2022-09-09T15:04:13;149.57;;;67.93;;
52738;SDS011;52466;40.122;18.318;2022-09-09T15:07:21;150.85;;;68.40;;
52738;SDS011;52466;40.122;18.318;2022-09-09T15:10:29;151.50;;;68.95;;
52738;SDS011;52466;40.122;18.318;2022-09-09T15:13:39;156.55;;;69.35;;
52738;SDS011;52466;40.122;18.318;2022-09-09T15:16:49;151.15;;;69.45;;
52738;SDS011;52466;40.122;18.318;2022-09-09T15:19:57;150.38;;;68.28;;
52738;SDS011;52466;40.122;18.318;2022-09-09T15:23:04;145.30;;;67.65;;
52738;SDS011;52466;40.122;18.318;2022-09-09T15:26:12;150.27;;;69.05;;
52738;SDS011;52466;40.122;18.318;2022-09-09T15:29:24;151.40;;;68.75;;
52738;SDS011;52466;40.122;18.318;2022-09-09T15:32:31;153.00;;;69.93;;
52738;SDS011;52466;40.122;18.318;2022-09-09T15:35:41;143.75;;;67.95;;
52738;SDS011;52466;40.122;18.318;2022-09-09T15:38:49;147.63;;;67.93;;
52738;SDS011;52466;40.122;18.318;2022-09-09T15:41:57;147.95;;;69.13;;
52738;SDS011;52466;40.122;18.318;2022-09-09T15:45:05;149.57;;;68.30;;
52738;SDS011;52466;40.122;18.318;2022-09-09T15:48:13;155.30;;;69.07;;
52738;SDS011;52466;40.122;18.318;2022-09-09T15:51:21;149.18;;;68.53;;
52738;SDS011;52466;40.122;18.318;2022-09-09T15:54:34;154.50;;;69.45;;
52738;SDS011;52466;40.122;18.318;2022-09-09T15:57:43;148.10;;;68.95;;
52738;SDS011;52466;40.122;18.318;2022-09-09T16:00:51;153.00;;;69.80;;
52738;SDS011;52466;40.122;18.318;2022-09-09T16:03:59;158.40;;;69.65;;
52738;SDS011;52466;40.122;18.318;2022-09-09T16:07:06;148.48;;;68.43;;
52738;SDS011;52466;40.122;18.318;2022-09-09T16:10:14;155.88;;;69.15;;
52738;SDS011;52466;40.122;18.318;2022-09-09T16:13:22;151.73;;;68.75;;
52738;SDS011;52466;40.122;18.318;2022-09-09T16:16:29;152.32;;;69.53;;
52738;SDS011;52466;40.122;18.318;2022-09-09T16:19:37;154.77;;;70.05;;
52738;SDS011;52466;40.122;18.318;2022-09-09T16:22:45;153.25;;;69.82;;
52738;SDS011;52466;40.122;18.318;2022-09-09T16:25:53;157.50;;;70.22;;
52738;SDS011;52466;40.122;18.318;2022-09-09T16:29:02;158.43;;;71.28;;
52738;SDS011;52466;40.122;18.318;2022-09-09T16:32:10;156.10;;;69.95;;
52738;SDS011;52466;40.122;18.318;2022-09-09T16:35:18;158.38;;;69.72;;
52738;SDS011;52466;40.122;18.318;2022-09-09T16:38:27;161.30;;;70.18;;
52738;SDS011;52466;40.122;18.318;2022-09-09T16:41:35;155.95;;;70.00;;
52738;SDS011;52466;40.122;18.318;2022-09-09T16:44:49;157.73;;;69.70;;
52738;SDS011;52466;40.122;18.318;2022-09-09T16:47:56;155.00;;;69.47;;
52738;SDS011;52466;40.122;18.318;2022-09-09T16:51:05;152.48;;;69.22;;
52738;SDS011;52466;40.122;18.318;2022-09-09T16:54:16;163.40;;;70.20;;
52738;SDS011;52466;40.122;18.318;2022-09-09T16:57:24;163.70;;;71.88;;
52738;SDS011;52466;40.122;18.318;2022-09-09T17:00:31;156.25;;;70.00;;
52738;SDS011;52466;40.122;18.318;2022-09-09T17:03:39;152.88;;;69.65;;
52738;SDS011;52466;40.122;18.318;2022-09-09T17:06:48;157.18;;;70.03;;
52738;SDS011;52466;40.122;18.318;2022-09-09T17:09:56;159.30;;;69.72;;
52738;SDS011;52466;40.122;18.318;2022-09-09T17:13:04;153.77;;;70.70;;
52738;SDS011;52466;40.122;18.318;2022-09-09T17:16:12;157.25;;;71.47;;
52738;SDS011;52466;40.122;18.318;2022-09-09T17:19:22;167.13;;;79.28;;
52738;SDS011;52466;40.122;18.318;2022-09-09T17:22:29;169.93;;;79.18;;
52738;SDS011;52466;40.122;18.318;2022-09-09T17:25:37;157.45;;;72.45;;
52738;SDS011;52466;40.122;18.318;2022-09-09T17:28:45;160.60;;;71.97;;
52738;SDS011;52466;40.122;18.318;2022-09-09T17:31:56;148.68;;;69.97;;
52738;SDS011;52466;40.122;18.318;2022-09-09T17:35:04;153.88;;;71.25;;
52738;SDS011;52466;40.122;18.318;2022-09-09T17:38:12;155.32;;;69.20;;
52738;SDS011;52466;40.122;18.318;2022-09-09T17:41:25;157.00;;;70.97;;
52738;SDS011;52466;40.122;18.318;2022-09-09T17:44:50;156.60;;;69.47;;
52738;SDS011;52466;40.122;18.318;2022-09-09T17:47:58;153.80;;;70.15;;
52738;SDS011;52466;40.122;18.318;2022-09-09T17:51:07;153.75;;;70.00;;
52738;SDS011;52466;40.122;18.318;2022-09-09T17:54:17;152.70;;;69.57;;
52738;SDS011;52466;40.122;18.318;2022-09-09T17:57:52;160.88;;;71.22;;
52738;SDS011;52466;40.122;18.318;2022-09-09T18:01:09;155.55;;;70.72;;
52738;SDS011;52466;40.122;18.318;2022-09-09T18:04:19;153.05;;;69.15;;
52738;SDS011;52466;40.122;18.318;2022-09-09T18:07:27;156.05;;;70.00;;
52738;SDS011;52466;40.122;18.318;2022-09-09T18:10:35;152.82;;;69.43;;
52738;SDS011;52466;40.122;18.318;2022-09-09T18:13:47;149.45;;;69.22;;
52738;SDS011;52466;40.122;18.318;2022-09-09T18:16:59;156.35;;;69.32;;
52738;SDS011;52466;40.122;18.318;2022-09-09T18:20:08;153.65;;;70.70;;
52738;SDS011;52466;40.122;18.318;2022-09-09T18:23:17;151.40;;;69.00;;
52738;SDS011;52466;40.122;18.318;2022-09-09T18:26:24;161.63;;;69.72;;
52738;SDS011;52466;40.122;18.318;2022-09-09T18:29:33;158.98;;;68.45;;
52738;SDS011;52466;40.122;18.318;2022-09-09T18:32:41;158.27;;;68.78;;
52738;SDS011;52466;40.122;18.318;2022-09-09T18:35:48;151.98;;;69.25;;
52738;SDS011;52466;40.122;18.318;2022-09-09T18:38:57;157.98;;;69.28;;
52738;SDS011;52466;40.122;18.318;2022-09-09T18:42:06;151.10;;;69.97;;
52738;SDS011;52466;40.122;18.318;2022-09-09T18:45:14;156.18;;;69.40;;
52738;SDS011;52466;40.122;18.318;2022-09-09T18:48:21;156.70;;;69.28;;
52738;SDS011;52466;40.122;18.318;2022-09-09T18:51:29;159.25;;;69.10;;
52738;SDS011;52466;40.122;18.318;2022-09-09T18:54:37;150.70;;;67.57;;
52738;SDS011;52466;40.122;18.318;2022-09-09T18:57:45;153.45;;;68.88;;
52738;SDS011;52466;40.122;18.318;2022-09-09T19:00:55;159.57;;;69.95;;
52738;SDS011;52466;40.122;18.318;2022-09-09T19:04:03;159.80;;;70.22;;
52738;SDS011;52466;40.122;18.318;2022-09-09T19:07:12;157.73;;;69.43;;
52738;SDS011;52466;40.122;18.318;2022-09-09T19:10:20;158.95;;;70.40;;
52738;SDS011;52466;40.122;18.318;2022-09-09T19:13:28;159.63;;;69.15;;
52738;SDS011;52466;40.122;18.318;2022-09-09T19:16:36;162.23;;;70.65;;
52738;SDS011;52466;40.122;18.318;2022-09-09T19:19:46;157.95;;;69.50;;
52738;SDS011;52466;40.122;18.318;2022-09-09T19:22:57;154.68;;;70.10;;
52738;SDS011;52466;40.122;18.318;2022-09-09T19:26:06;157.73;;;70.55;;
52738;SDS011;52466;40.122;18.318;2022-09-09T19:29:15;153.77;;;69.82;;
52738;SDS011;52466;40.122;18.318;2022-09-09T19:32:25;167.80;;;69.88;;
52738;SDS011;52466;40.122;18.318;2022-09-09T19:35:33;150.63;;;70.10;;
52738;SDS011;52466;40.122;18.318;2022-09-09T19:38:40;158.80;;;70.97;;
52738;SDS011;52466;40.122;18.318;2022-09-09T19:41:48;155.02;;;70.25;;
52738;SDS011;52466;40.122;18.318;2022-09-09T19:44:56;158.88;;;69.65;;
52738;SDS011;52466;40.122;18.318;2022-09-09T19:48:04;154.02;;;69.28;;
52738;SDS011;52466;40.122;18.318;2022-09-09T19:51:13;156.82;;;69.55;;
52738;SDS011;52466;40.122;18.318;2022-09-09T19:54:26;156.55;;;69.22;;
52738;SDS011;52466;40.122;18.318;2022-09-09T19:57:57;160.88;;;71.57;;
52738;SDS011;52466;40.122;18.318;2022-09-09T20:01:05;147.50;;;69.07;;
52738;SDS011;52466;40.122;18.318;2022-09-09T20:04:19;152.70;;;69.85;;
52738;SDS011;52466;40.122;18.318;2022-09-09T20:07:27;165.98;;;69.93;;
52738;SDS011;52466;40.122;18.318;2022-09-09T20:10:35;155.23;;;70.18;;
52738;SDS011;52466;40.122;18.318;2022-09-09T20:13:43;152.18;;;69.85;;
52738;SDS011;52466;40.122;18.318;2022-09-09T20:16:50;157.43;;;69.82;;
52738;SDS011;52466;40.122;18.318;2022-09-09T20:19:58;156.68;;;68.90;;
52738;SDS011;52466;40.122;18.318;2022-09-09T20:23:06;152.55;;;69.15;;